sensor_id;sensor_type;location;lat;lon;timestamp;temperature;humidity
38902;DHT22;24661;53.566;9.910;2023-04-01T00:00:52;10.40;99.90
38902;DHT22;24661;53.566;9.910;2023-04-01T00:03:19;10.40;99.90
38902;DHT22;24661;53.566;9.910;2023-04-01T00:05:46;10.40;99.90
38902;DHT22;24661;53.566;9.910;2023-04-01T00:08:11;10.40;99.90
38902;DHT22;24661;53.566;9.910;2023-04-01T00:10:37;10.40;99.90
38902;DHT22;24661;53.566;9.910;2023-04-01T00:13:03;10.40;99.90
38902;DHT22;24661;53.566;9.910;2023-04-01T00:15:29;10.40;99.90
38902;DHT22;24661;53.566;9.910;2023-04-01T00:17:54;10.40;99.90
38902;DHT22;24661;53.566;9.910;2023-04-01T00:20:20;10.40;99.90
38902;DHT22;24661;53.566;9.910;2023-04-01T00:22:46;10.30;99.90
38902;DHT22;24661;53.566;9.910;2023-04-01T00:25:11;10.30;99.90
38902;DHT22;24661;53.566;9.910;2023-04-01T00:27:37;10.30;99.90
38902;DHT22;24661;53.566;9.910;2023-04-01T00:30:03;10.20;99.90
38902;DHT22;24661;53.566;9.910;2023-04-01T00:32:29;10.20;99.90
38902;DHT22;24661;53.566;9.910;2023-04-01T00:34:55;10.20;99.90
38902;DHT22;24661;53.566;9.910;2023-04-01T00:37:21;10.20;99.90
38902;DHT22;24661;53.566;9.910;2023-04-01T00:39:48;10.20;99.90
38902;DHT22;24661;53.566;9.910;2023-04-01T00:42:13;10.20;99.90
38902;DHT22;24661;53.566;9.910;2023-04-01T00:44:40;10.20;99.90
38902;DHT22;24661;53.566;9.910;2023-04-01T00:47:06;10.20;99.90
38902;DHT22;24661;53.566;9.910;2023-04-01T00:49:36;10.20;99.90
38902;DHT22;24661;53.566;9.910;2023-04-01T00:52:04;10.20;99.90
38902;DHT22;24661;53.566;9.910;2023-04-01T00:54:32;10.20;99.90
38902;DHT22;24661;53.566;9.910;2023-04-01T00:57:05;10.10;99.90
38902;DHT22;24661;53.566;9.910;2023-04-01T00:59:34;10.10;99.90
38902;DHT22;24661;53.566;9.910;2023-04-01T01:02:04;10.10;99.90
38902;DHT22;24661;53.566;9.910;2023-04-01T01:04:33;10.20;99.90
38902;DHT22;24661;53.566;9.910;2023-04-01T01:07:26;10.10;99.90
38902;DHT22;24661;53.566;9.910;2023-04-01T01:10:07;10.10;99.90
38902;DHT22;24661;53.566;9.910;2023-04-01T01:12:46;10.10;99.90
38902;DHT22;24661;53.566;9.910;2023-04-01T01:32:07;10.10;99.90
38902;DHT22;24661;53.566;9.910;2023-04-01T01:35:14;10.10;99.90
38902;DHT22;24661;53.566;9.910;2023-04-01T01:37:42;10.10;99.90
38902;DHT22;24661;53.566;9.910;2023-04-01T01:40:10;10.20;99.90
38902;DHT22;24661;53.566;9.910;2023-04-01T01:42:39;10.20;99.90
38902;DHT22;24661;53.566;9.910;2023-04-01T01:45:08;10.20;99.90
38902;DHT22;24661;53.566;9.910;2023-04-01T01:47:34;10.20;99.90
38902;DHT22;24661;53.566;9.910;2023-04-01T01:50:01;10.20;99.90
38902;DHT22;24661;53.566;9.910;2023-04-01T01:52:28;10.20;99.90
38902;DHT22;24661;53.566;9.910;2023-04-01T01:54:57;10.20;99.90
38902;DHT22;24661;53.566;9.910;2023-04-01T01:57:33;10.20;99.90
38902;DHT22;24661;53.566;9.910;2023-04-01T02:00:05;10.20;99.90
38902;DHT22;24661;53.566;9.910;2023-04-01T02:02:39;10.20;99.90
38902;DHT22;24661;53.566;9.910;2023-04-01T02:05:07;10.30;99.90
38902;DHT22;24661;53.566;9.910;2023-04-01T02:07:35;10.30;99.90
38902;DHT22;24661;53.566;9.910;2023-04-01T02:10:03;10.30;99.90
38902;DHT22;24661;53.566;9.910;2023-04-01T02:12:30;10.20;99.90
38902;DHT22;24661;53.566;9.910;2023-04-01T02:15:04;10.20;99.90
38902;DHT22;24661;53.566;9.910;2023-04-01T02:17:32;10.20;99.90
38902;DHT22;24661;53.566;9.910;2023-04-01T02:20:00;10.30;99.90
38902;DHT22;24661;53.566;9.910;2023-04-01T02:22:29;10.30;99.90
38902;DHT22;24661;53.566;9.910;2023-04-01T02:25:11;10.30;99.90
38902;DHT22;24661;53.566;9.910;2023-04-01T02:27:39;10.30;99.90
38902;DHT22;24661;53.566;9.910;2023-04-01T02:30:06;10.20;99.90
38902;DHT22;24661;53.566;9.910;2023-04-01T02:32:33;10.30;99.90
38902;DHT22;24661;53.566;9.910;2023-04-01T02:35:01;10.30;99.90
38902;DHT22;24661;53.566;9.910;2023-04-01T02:37:31;10.00;99.90
38902;DHT22;24661;53.566;9.910;2023-04-01T02:40:02;10.20;99.90
38902;DHT22;24661;53.566;9.910;2023-04-01T02:42:27;10.20;99.90
38902;DHT22;24661;53.566;9.910;2023-04-01T02:44:53;10.30;99.90
38902;DHT22;24661;53.566;9.910;2023-04-01T02:47:19;10.30;99.90
38902;DHT22;24661;53.566;9.910;2023-04-01T02:49:44;10.30;99.90
38902;DHT22;24661;53.566;9.910;2023-04-01T02:52:10;10.30;99.90
38902;DHT22;24661;53.566;9.910;2023-04-01T02:54:35;10.30;99.90
38902;DHT22;24661;53.566;9.910;2023-04-01T02:57:01;10.30;99.90
38902;DHT22;24661;53.566;9.910;2023-04-01T02:59:27;10.30;99.90
38902;DHT22;24661;53.566;9.910;2023-04-01T03:01:52;10.40;99.90
38902;DHT22;24661;53.566;9.910;2023-04-01T03:04:18;10.30;99.90
38902;DHT22;24661;53.566;9.910;2023-04-01T03:06:43;10.30;99.90
38902;DHT22;24661;53.566;9.910;2023-04-01T03:09:09;10.30;99.90
38902;DHT22;24661;53.566;9.910;2023-04-01T03:11:34;10.40;99.90
38902;DHT22;24661;53.566;9.910;2023-04-01T03:14:00;10.30;99.90
38902;DHT22;24661;53.566;9.910;2023-04-01T03:16:26;10.30;99.90
38902;DHT22;24661;53.566;9.910;2023-04-01T03:18:52;10.30;99.90
38902;DHT22;24661;53.566;9.910;2023-04-01T03:21:21;10.30;99.90
38902;DHT22;24661;53.566;9.910;2023-04-01T03:23:47;10.30;99.90
38902;DHT22;24661;53.566;9.910;2023-04-01T03:26:13;10.30;99.90
38902;DHT22;24661;53.566;9.910;2023-04-01T03:28:39;10.30;99.90
38902;DHT22;24661;53.566;9.910;2023-04-01T03:31:04;11.70;99.90
38902;DHT22;24661;53.566;9.910;2023-04-01T03:33:31;10.30;99.90
38902;DHT22;24661;53.566;9.910;2023-04-01T03:35:57;10.30;99.90
38902;DHT22;24661;53.566;9.910;2023-04-01T03:38:23;10.30;99.90
38902;DHT22;24661;53.566;9.910;2023-04-01T03:40:48;10.40;99.90
38902;DHT22;24661;53.566;9.910;2023-04-01T03:43:14;10.40;99.90
38902;DHT22;24661;53.566;9.910;2023-04-01T03:45:49;10.30;99.90
38902;DHT22;24661;53.566;9.910;2023-04-01T03:48:15;10.30;99.90
38902;DHT22;24661;53.566;9.910;2023-04-01T03:50:41;10.30;99.90
38902;DHT22;24661;53.566;9.910;2023-04-01T03:53:07;10.30;99.90
38902;DHT22;24661;53.566;9.910;2023-04-01T03:55:35;10.40;99.90
38902;DHT22;24661;53.566;9.910;2023-04-01T03:58:01;10.30;99.90
38902;DHT22;24661;53.566;9.910;2023-04-01T04:00:28;10.40;99.90
38902;DHT22;24661;53.566;9.910;2023-04-01T04:02:54;10.30;99.90
38902;DHT22;24661;53.566;9.910;2023-04-01T04:05:22;10.30;99.90
38902;DHT22;24661;53.566;9.910;2023-04-01T04:07:47;10.30;99.90
38902;DHT22;24661;53.566;9.910;2023-04-01T04:10:13;10.30;99.90
38902;DHT22;24661;53.566;9.910;2023-04-01T04:12:38;10.40;99.90
38902;DHT22;24661;53.566;9.910;2023-04-01T04:15:06;10.40;99.90
38902;DHT22;24661;53.566;9.910;2023-04-01T04:17:31;10.40;99.90
38902;DHT22;24661;53.566;9.910;2023-04-01T04:19:57;10.40;99.90
38902;DHT22;24661;53.566;9.910;2023-04-01T04:22:23;10.40;99.90
38902;DHT22;24661;53.566;9.910;2023-04-01T04:24:48;10.40;99.90
38902;DHT22;24661;53.566;9.910;2023-04-01T04:27:14;10.40;99.90
38902;DHT22;24661;53.566;9.910;2023-04-01T04:29:40;10.30;99.90
38902;DHT22;24661;53.566;9.910;2023-04-01T04:32:06;10.30;99.90
38902;DHT22;24661;53.566;9.910;2023-04-01T04:34:32;10.30;99.90
38902;DHT22;24661;53.566;9.910;2023-04-01T04:36:58;10.30;99.90
38902;DHT22;24661;53.566;9.910;2023-04-01T04:39:23;10.30;99.90
38902;DHT22;24661;53.566;9.910;2023-04-01T04:41:49;10.30;99.90
38902;DHT22;24661;53.566;9.910;2023-04-01T04:44:14;10.30;99.90
38902;DHT22;24661;53.566;9.910;2023-04-01T04:46:40;10.30;99.90
38902;DHT22;24661;53.566;9.910;2023-04-01T04:49:06;10.30;99.90
38902;DHT22;24661;53.566;9.910;2023-04-01T04:51:31;10.20;99.90
38902;DHT22;24661;53.566;9.910;2023-04-01T04:54:02;10.20;99.90
38902;DHT22;24661;53.566;9.910;2023-04-01T04:56:28;10.30;99.90
38902;DHT22;24661;53.566;9.910;2023-04-01T04:58:54;10.30;99.90
38902;DHT22;24661;53.566;9.910;2023-04-01T05:01:19;10.30;99.90
38902;DHT22;24661;53.566;9.910;2023-04-01T05:03:45;10.30;99.90
38902;DHT22;24661;53.566;9.910;2023-04-01T05:06:13;10.20;99.90
38902;DHT22;24661;53.566;9.910;2023-04-01T05:08:41;10.20;99.90
38902;DHT22;24661;53.566;9.910;2023-04-01T05:11:11;10.30;99.90
38902;DHT22;24661;53.566;9.910;2023-04-01T05:13:37;10.30;99.90
38902;DHT22;24661;53.566;9.910;2023-04-01T05:16:03;10.20;99.90
38902;DHT22;24661;53.566;9.910;2023-04-01T05:18:28;10.20;99.90
38902;DHT22;24661;53.566;9.910;2023-04-01T05:20:54;10.20;99.90
38902;DHT22;24661;53.566;9.910;2023-04-01T05:23:21;10.10;99.90
38902;DHT22;24661;53.566;9.910;2023-04-01T05:25:47;10.10;99.90
38902;DHT22;24661;53.566;9.910;2023-04-01T05:28:14;10.10;99.90
38902;DHT22;24661;53.566;9.910;2023-04-01T05:30:41;10.00;99.90
38902;DHT22;24661;53.566;9.910;2023-04-01T05:33:07;10.10;99.90
38902;DHT22;24661;53.566;9.910;2023-04-01T05:35:33;10.10;99.90
38902;DHT22;24661;53.566;9.910;2023-04-01T05:37:58;10.00;99.90
38902;DHT22;24661;53.566;9.910;2023-04-01T05:40:25;10.00;99.90
38902;DHT22;24661;53.566;9.910;2023-04-01T05:42:51;10.00;99.90
38902;DHT22;24661;53.566;9.910;2023-04-01T05:45:17;9.90;99.90
38902;DHT22;24661;53.566;9.910;2023-04-01T05:47:42;9.70;99.90
38902;DHT22;24661;53.566;9.910;2023-04-01T05:50:09;9.50;99.90
38902;DHT22;24661;53.566;9.910;2023-04-01T05:52:37;9.30;99.90
38902;DHT22;24661;53.566;9.910;2023-04-01T05:55:03;9.20;99.90
38902;DHT22;24661;53.566;9.910;2023-04-01T05:57:29;9.00;99.90
38902;DHT22;24661;53.566;9.910;2023-04-01T05:59:55;9.00;99.90
38902;DHT22;24661;53.566;9.910;2023-04-01T06:02:20;9.00;99.90
38902;DHT22;24661;53.566;9.910;2023-04-01T06:04:46;8.90;99.90
38902;DHT22;24661;53.566;9.910;2023-04-01T06:07:17;8.80;99.90
38902;DHT22;24661;53.566;9.910;2023-04-01T06:09:44;8.70;99.90
38902;DHT22;24661;53.566;9.910;2023-04-01T06:12:31;8.70;99.90
38902;DHT22;24661;53.566;9.910;2023-04-01T06:23:14;8.40;99.90
38902;DHT22;24661;53.566;9.910;2023-04-01T06:28:54;8.30;99.90
38902;DHT22;24661;53.566;9.910;2023-04-01T06:36:57;8.10;99.90
38902;DHT22;24661;53.566;9.910;2023-04-01T06:45:17;7.90;99.90
38902;DHT22;24661;53.566;9.910;2023-04-01T06:58:30;8.00;99.90
38902;DHT22;24661;53.566;9.910;2023-04-01T07:01:02;8.00;99.90
38902;DHT22;24661;53.566;9.910;2023-04-01T07:03:44;7.90;99.90
38902;DHT22;24661;53.566;9.910;2023-04-01T07:06:22;7.70;99.90
38902;DHT22;24661;53.566;9.910;2023-04-01T07:08:49;7.80;99.90
38902;DHT22;24661;53.566;9.910;2023-04-01T07:11:25;7.80;99.90
38902;DHT22;24661;53.566;9.910;2023-04-01T07:16:53;7.70;99.90
38902;DHT22;24661;53.566;9.910;2023-04-01T07:22:33;7.90;99.90
38902;DHT22;24661;53.566;9.910;2023-04-01T07:25:14;7.90;99.90
38902;DHT22;24661;53.566;9.910;2023-04-01T07:27:42;7.90;99.90
38902;DHT22;24661;53.566;9.910;2023-04-01T07:30:20;7.70;99.90
38902;DHT22;24661;53.566;9.910;2023-04-01T07:33:04;7.70;99.90
38902;DHT22;24661;53.566;9.910;2023-04-01T07:35:41;7.50;99.90
38902;DHT22;24661;53.566;9.910;2023-04-01T07:38:14;7.70;99.90
38902;DHT22;24661;53.566;9.910;2023-04-01T07:43:36;7.50;99.90
38902;DHT22;24661;53.566;9.910;2023-04-01T07:54:20;7.30;99.90
38902;DHT22;24661;53.566;9.910;2023-04-01T07:57:11;7.20;99.90
38902;DHT22;24661;53.566;9.910;2023-04-01T08:04:51;7.40;99.90
38902;DHT22;24661;53.566;9.910;2023-04-01T08:10:32;7.30;99.90
38902;DHT22;24661;53.566;9.910;2023-04-01T08:21:48;7.30;99.90
38902;DHT22;24661;53.566;9.910;2023-04-01T08:24:55;7.30;99.90
38902;DHT22;24661;53.566;9.910;2023-04-01T08:27:37;7.10;99.90
38902;DHT22;24661;53.566;9.910;2023-04-01T08:32:38;7.30;99.90
38902;DHT22;24661;53.566;9.910;2023-04-01T08:35:27;7.40;99.90
38902;DHT22;24661;53.566;9.910;2023-04-01T08:37:57;7.30;99.90
38902;DHT22;24661;53.566;9.910;2023-04-01T08:43:35;7.40;99.90
38902;DHT22;24661;53.566;9.910;2023-04-01T08:49:17;7.40;99.90
38902;DHT22;24661;53.566;9.910;2023-04-01T08:54:46;7.50;99.90
38902;DHT22;24661;53.566;9.910;2023-04-01T09:00:24;7.40;99.90
38902;DHT22;24661;53.566;9.910;2023-04-01T09:06:01;7.50;99.90
38902;DHT22;24661;53.566;9.910;2023-04-01T09:08:55;7.70;99.90
38902;DHT22;24661;53.566;9.910;2023-04-01T09:11:38;7.50;99.90
38902;DHT22;24661;53.566;9.910;2023-04-01T09:14:23;7.70;99.90
38902;DHT22;24661;53.566;9.910;2023-04-01T09:22:54;7.60;99.90
38902;DHT22;24661;53.566;9.910;2023-04-01T09:36:43;7.70;99.90
38902;DHT22;24661;53.566;9.910;2023-04-01T09:44:34;7.90;99.90
38902;DHT22;24661;53.566;9.910;2023-04-01T10:01:10;8.10;99.90
38902;DHT22;24661;53.566;9.910;2023-04-01T10:03:54;8.10;99.90
38902;DHT22;24661;53.566;9.910;2023-04-01T10:09:26;8.00;99.90
38902;DHT22;24661;53.566;9.910;2023-04-01T10:17:44;8.00;99.90
38902;DHT22;24661;53.566;9.910;2023-04-01T10:20:21;8.00;99.90
38902;DHT22;24661;53.566;9.910;2023-04-01T10:29:01;8.20;99.90
38902;DHT22;24661;53.566;9.910;2023-04-01T10:51:13;8.00;99.90
38902;DHT22;24661;53.566;9.910;2023-04-01T11:01:52;7.70;99.90
38902;DHT22;24661;53.566;9.910;2023-04-01T11:20:37;7.90;99.90
38902;DHT22;24661;53.566;9.910;2023-04-01T11:23:40;7.70;99.90
38902;DHT22;24661;53.566;9.910;2023-04-01T11:36:37;7.60;99.90
38902;DHT22;24661;53.566;9.910;2023-04-01T11:45:39;7.30;99.90
38902;DHT22;24661;53.566;9.910;2023-04-01T11:59:06;7.50;99.90
38902;DHT22;24661;53.566;9.910;2023-04-01T12:07:22;7.40;99.90
38902;DHT22;24661;53.566;9.910;2023-04-01T12:10:24;7.40;99.90
38902;DHT22;24661;53.566;9.910;2023-04-01T12:13:31;7.50;99.90
38902;DHT22;24661;53.566;9.910;2023-04-01T12:20:02;7.60;99.90
38902;DHT22;24661;53.566;9.910;2023-04-01T12:22:34;7.50;99.90
38902;DHT22;24661;53.566;9.910;2023-04-01T12:41:53;7.30;99.90
38902;DHT22;24661;53.566;9.910;2023-04-01T12:50:42;7.30;99.90
38902;DHT22;24661;53.566;9.910;2023-04-01T12:53:49;7.40;99.90
38902;DHT22;24661;53.566;9.910;2023-04-01T12:59:19;7.20;99.90
38902;DHT22;24661;53.566;9.910;2023-04-01T13:02:00;7.30;99.90
38902;DHT22;24661;53.566;9.910;2023-04-01T13:09:48;7.20;99.90
38902;DHT22;24661;53.566;9.910;2023-04-01T13:17:44;7.20;99.90
38902;DHT22;24661;53.566;9.910;2023-04-01T13:23:50;7.10;99.90
38902;DHT22;24661;53.566;9.910;2023-04-01T13:29:40;7.10;99.90
38902;DHT22;24661;53.566;9.910;2023-04-01T13:32:16;7.10;99.90
38902;DHT22;24661;53.566;9.910;2023-04-01T13:43:00;7.10;99.90
38902;DHT22;24661;53.566;9.910;2023-04-01T13:48:41;7.00;99.90
38902;DHT22;24661;53.566;9.910;2023-04-01T13:59:28;7.00;99.90
38902;DHT22;24661;53.566;9.910;2023-04-01T14:05:25;7.10;99.90
38902;DHT22;24661;53.566;9.910;2023-04-01T14:14:02;7.00;99.90
38902;DHT22;24661;53.566;9.910;2023-04-01T14:29:16;6.90;99.90
38902;DHT22;24661;53.566;9.910;2023-04-01T14:48:07;6.90;99.90
38902;DHT22;24661;53.566;9.910;2023-04-01T14:50:45;6.80;99.90
38902;DHT22;24661;53.566;9.910;2023-04-01T14:55:59;6.90;99.90
38902;DHT22;24661;53.566;9.910;2023-04-01T14:58:43;6.80;99.90
38902;DHT22;24661;53.566;9.910;2023-04-01T15:29:22;6.40;99.90
38902;DHT22;24661;53.566;9.910;2023-04-01T15:32:17;6.30;99.90
38902;DHT22;24661;53.566;9.910;2023-04-01T15:36:02;6.20;99.90
38902;DHT22;24661;53.566;9.910;2023-04-01T15:40:32;6.10;99.90
38902;DHT22;24661;53.566;9.910;2023-04-01T15:43:45;6.30;99.90
38902;DHT22;24661;53.566;9.910;2023-04-01T15:46:41;6.20;99.90
38902;DHT22;24661;53.566;9.910;2023-04-01T15:50:04;6.10;99.90
38902;DHT22;24661;53.566;9.910;2023-04-01T15:55:26;6.00;99.90
38902;DHT22;24661;53.566;9.910;2023-04-01T16:01:38;6.10;99.90
38902;DHT22;24661;53.566;9.910;2023-04-01T16:22:06;5.80;99.90
38902;DHT22;24661;53.566;9.910;2023-04-01T16:27:25;5.80;99.90
38902;DHT22;24661;53.566;9.910;2023-04-01T16:33:22;5.70;99.90
38902;DHT22;24661;53.566;9.910;2023-04-01T16:39:20;5.50;99.90
38902;DHT22;24661;53.566;9.910;2023-04-01T16:47:40;5.50;99.90
38902;DHT22;24661;53.566;9.910;2023-04-01T16:50:20;5.60;99.90
38902;DHT22;24661;53.566;9.910;2023-04-01T16:56:02;5.50;99.90
38902;DHT22;24661;53.566;9.910;2023-04-01T17:01:53;5.50;99.90
38902;DHT22;24661;53.566;9.910;2023-04-01T17:18:48;5.40;99.90
38902;DHT22;24661;53.566;9.910;2023-04-01T17:21:30;5.30;99.90
38902;DHT22;24661;53.566;9.910;2023-04-01T17:27:17;5.20;99.90
38902;DHT22;24661;53.566;9.910;2023-04-01T17:29:59;5.20;99.90
38902;DHT22;24661;53.566;9.910;2023-04-01T17:35:31;5.30;99.90
38902;DHT22;24661;53.566;9.910;2023-04-01T17:38:08;5.40;99.90
38902;DHT22;24661;53.566;9.910;2023-04-01T17:41:03;5.30;99.90
38902;DHT22;24661;53.566;9.910;2023-04-01T17:46:50;5.30;99.90
38902;DHT22;24661;53.566;9.910;2023-04-01T17:55:42;5.40;99.90
38902;DHT22;24661;53.566;9.910;2023-04-01T17:58:45;5.40;99.90
38902;DHT22;24661;53.566;9.910;2023-04-01T18:01:51;5.50;99.90
38902;DHT22;24661;53.566;9.910;2023-04-01T18:04:52;5.50;99.90
38902;DHT22;24661;53.566;9.910;2023-04-01T18:07:54;5.30;99.90
38902;DHT22;24661;53.566;9.910;2023-04-01T18:27:23;5.20;99.90
38902;DHT22;24661;53.566;9.910;2023-04-01T18:29:54;5.10;99.90
38902;DHT22;24661;53.566;9.910;2023-04-01T18:32:45;5.00;99.90
38902;DHT22;24661;53.566;9.910;2023-04-01T18:38:24;5.20;99.90
38902;DHT22;24661;53.566;9.910;2023-04-01T18:41:05;5.10;99.90
38902;DHT22;24661;53.566;9.910;2023-04-01T18:43:38;4.90;99.90
38902;DHT22;24661;53.566;9.910;2023-04-01T18:46:19;4.90;99.90
38902;DHT22;24661;53.566;9.910;2023-04-01T18:49:11;5.10;99.90
38902;DHT22;24661;53.566;9.910;2023-04-01T18:51:44;5.00;99.90
38902;DHT22;24661;53.566;9.910;2023-04-01T18:57:16;5.00;99.90
38902;DHT22;24661;53.566;9.910;2023-04-01T19:02:40;5.00;99.90
38902;DHT22;24661;53.566;9.910;2023-04-01T19:05:20;5.00;99.90
38902;DHT22;24661;53.566;9.910;2023-04-01T19:07:55;4.80;99.90
38902;DHT22;24661;53.566;9.910;2023-04-01T19:10:38;3.30;99.90
38902;DHT22;24661;53.566;9.910;2023-04-01T19:13:34;4.80;99.90
38902;DHT22;24661;53.566;9.910;2023-04-01T19:19:06;4.90;99.90
38902;DHT22;24661;53.566;9.910;2023-04-01T19:21:45;4.80;99.90
38902;DHT22;24661;53.566;9.910;2023-04-01T19:24:40;4.90;99.90
38902;DHT22;24661;53.566;9.910;2023-04-01T19:30:16;4.80;99.90
38902;DHT22;24661;53.566;9.910;2023-04-01T19:33:16;4.90;99.90
38902;DHT22;24661;53.566;9.910;2023-04-01T19:38:55;4.90;99.90
38902;DHT22;24661;53.566;9.910;2023-04-01T19:41:52;5.00;99.90
38902;DHT22;24661;53.566;9.910;2023-04-01T19:52:49;4.70;99.90
38902;DHT22;24661;53.566;9.910;2023-04-01T20:00:58;4.50;99.90
38902;DHT22;24661;53.566;9.910;2023-04-01T20:03:50;4.40;99.90
38902;DHT22;24661;53.566;9.910;2023-04-01T20:09:34;4.30;99.90
38902;DHT22;24661;53.566;9.910;2023-04-01T20:14:36;2.30;99.90
38902;DHT22;24661;53.566;9.910;2023-04-01T20:25:27;3.70;99.90
38902;DHT22;24661;53.566;9.910;2023-04-01T20:30:59;3.60;99.90
38902;DHT22;24661;53.566;9.910;2023-04-01T20:44:04;3.70;99.90
38902;DHT22;24661;53.566;9.910;2023-04-01T20:49:40;3.70;99.90
38902;DHT22;24661;53.566;9.910;2023-04-01T21:06:03;3.50;99.90
38902;DHT22;24661;53.566;9.910;2023-04-01T21:11:53;3.50;99.90
38902;DHT22;24661;53.566;9.910;2023-04-01T21:17:22;3.40;99.90
38902;DHT22;24661;53.566;9.910;2023-04-01T21:20:03;3.30;99.90
38902;DHT22;24661;53.566;9.910;2023-04-01T21:22:44;3.30;99.90
38902;DHT22;24661;53.566;9.910;2023-04-01T21:26:03;3.20;99.90
38902;DHT22;24661;53.566;9.910;2023-04-01T21:28:59;3.10;99.90
38902;DHT22;24661;53.566;9.910;2023-04-01T21:31:58;3.00;99.90
38902;DHT22;24661;53.566;9.910;2023-04-01T21:35:21;3.00;99.90
38902;DHT22;24661;53.566;9.910;2023-04-01T21:49:37;2.70;99.90
38902;DHT22;24661;53.566;9.910;2023-04-01T22:06:18;2.80;99.90
38902;DHT22;24661;53.566;9.910;2023-04-01T22:11:46;2.70;99.90
38902;DHT22;24661;53.566;9.910;2023-04-01T22:17:21;3.00;99.90
38902;DHT22;24661;53.566;9.910;2023-04-01T22:22:31;2.70;99.90
38902;DHT22;24661;53.566;9.910;2023-04-01T22:25:07;2.50;99.90
38902;DHT22;24661;53.566;9.910;2023-04-01T22:30:22;2.50;99.90
38902;DHT22;24661;53.566;9.910;2023-04-01T22:32:52;2.60;99.90
38902;DHT22;24661;53.566;9.910;2023-04-01T22:38:03;2.50;99.90
38902;DHT22;24661;53.566;9.910;2023-04-01T22:41:46;2.50;99.90
38902;DHT22;24661;53.566;9.910;2023-04-01T22:43:42;2.50;99.90
38902;DHT22;24661;53.566;9.910;2023-04-01T22:46:33;2.60;99.90
38902;DHT22;24661;53.566;9.910;2023-04-01T22:51:39;2.50;99.90
38902;DHT22;24661;53.566;9.910;2023-04-01T22:54:27;2.40;99.90
38902;DHT22;24661;53.566;9.910;2023-04-01T22:57:04;2.50;99.90
38902;DHT22;24661;53.566;9.910;2023-04-01T22:59:57;2.60;99.90
38902;DHT22;24661;53.566;9.910;2023-04-01T23:02:28;2.60;99.90
38902;DHT22;24661;53.566;9.910;2023-04-01T23:05:02;2.60;99.90
38902;DHT22;24661;53.566;9.910;2023-04-01T23:10:22;2.40;99.90
38902;DHT22;24661;53.566;9.910;2023-04-01T23:12:51;2.40;99.90
38902;DHT22;24661;53.566;9.910;2023-04-01T23:15:18;2.40;99.90
38902;DHT22;24661;53.566;9.910;2023-04-01T23:18:11;2.40;99.90
38902;DHT22;24661;53.566;9.910;2023-04-01T23:28:36;2.40;99.90
38902;DHT22;24661;53.566;9.910;2023-04-01T23:34:27;2.30;99.90
38902;DHT22;24661;53.566;9.910;2023-04-01T23:36:53;2.20;99.90
38902;DHT22;24661;53.566;9.910;2023-04-01T23:39:35;2.20;99.90
38902;DHT22;24661;53.566;9.910;2023-04-01T23:42:46;2.20;99.90
38902;DHT22;24661;53.566;9.910;2023-04-01T23:45:03;3.80;99.90
38902;DHT22;24661;53.566;9.910;2023-04-01T23:47:35;2.40;99.90
38902;DHT22;24661;53.566;9.910;2023-04-01T23:50:06;2.40;99.90
38902;DHT22;24661;53.566;9.910;2023-04-01T23:52:40;2.30;99.90
38902;DHT22;24661;53.566;9.910;2023-04-01T23:55:22;2.40;99.90
38902;DHT22;24661;53.566;9.910;2023-04-01T23:58:23;2.40;99.90
